createdAt,value
2022-08-24T00:00:01.550Z,99.90
2022-08-24T00:02:31.560Z,99.90
2022-08-24T00:05:01.978Z,99.90
2022-08-24T00:07:32.482Z,99.90
2022-08-24T00:10:02.753Z,99.90
2022-08-24T00:12:33.833Z,99.90
2022-08-24T00:15:06.666Z,99.90
2022-08-24T00:17:37.162Z,99.90
2022-08-24T00:20:08.444Z,99.90
2022-08-24T00:22:39.618Z,99.90
2022-08-24T00:25:10.711Z,99.90
2022-08-24T00:27:42.339Z,99.90
2022-08-24T00:30:20.790Z,99.90
2022-08-24T00:32:52.309Z,99.90
2022-08-24T00:35:23.072Z,99.90
2022-08-24T00:37:54.764Z,99.90
2022-08-24T00:40:27.108Z,99.90
2022-08-24T00:42:57.714Z,99.90
2022-08-24T00:45:36.537Z,99.90
2022-08-24T00:48:13.559Z,99.90
2022-08-24T00:50:49.376Z,99.90
2022-08-24T00:53:25.939Z,99.90
2022-08-24T00:56:01.291Z,99.90
2022-08-24T00:58:36.651Z,99.90
2022-08-24T01:01:11.800Z,99.90
2022-08-24T01:03:56.612Z,99.90
2022-08-24T01:06:29.149Z,99.90
2022-08-24T01:08:58.884Z,99.90
2022-08-24T01:11:34.784Z,99.90
2022-08-24T01:14:06.116Z,99.90
2022-08-24T01:16:54.487Z,99.90
2022-08-24T01:19:36.090Z,99.90
2022-08-24T01:22:19.867Z,99.90
2022-08-24T01:24:52.290Z,99.90
2022-08-24T01:27:27.756Z,99.90
2022-08-24T01:30:02.298Z,99.90
2022-08-24T01:32:31.950Z,99.90
2022-08-24T01:35:01.354Z,99.90
2022-08-24T01:37:33.525Z,99.90
2022-08-24T01:40:09.732Z,99.90
2022-08-24T01:42:39.745Z,99.90
2022-08-24T01:45:12.302Z,99.90
2022-08-24T01:47:43.693Z,99.90
2022-08-24T01:50:13.965Z,99.90
2022-08-24T01:53:04.336Z,99.90
2022-08-24T01:55:38.321Z,99.90
2022-08-24T01:58:10.194Z,99.90
2022-08-24T02:00:41.806Z,99.90
2022-08-24T02:03:11.316Z,99.90
2022-08-24T02:05:45.868Z,99.90
2022-08-24T02:08:17.913Z,99.90
2022-08-24T02:10:56.343Z,99.90
2022-08-24T02:13:31.313Z,99.90
2022-08-24T02:16:01.468Z,99.90
2022-08-24T02:18:36.612Z,99.90
2022-08-24T02:21:11.312Z,99.90
2022-08-24T02:23:42.257Z,99.90
2022-08-24T02:26:13.493Z,99.90
2022-08-24T02:28:43.444Z,99.90
2022-08-24T02:31:14.986Z,99.90
2022-08-24T02:33:47.197Z,99.90
2022-08-24T02:36:25.305Z,99.90
2022-08-24T02:39:00.396Z,99.90
2022-08-24T02:41:31.503Z,99.90
2022-08-24T02:44:01.605Z,99.90
2022-08-24T02:46:33.137Z,99.90
2022-08-24T02:49:11.642Z,99.90
2022-08-24T02:51:48.888Z,99.90
2022-08-24T02:54:23.402Z,99.90
2022-08-24T02:56:56.198Z,99.90
2022-08-24T02:59:27.672Z,99.90
2022-08-24T03:01:58.332Z,99.90
2022-08-24T03:04:30.756Z,99.90
2022-08-24T03:07:02.376Z,99.90
2022-08-24T03:09:32.856Z,99.90
2022-08-24T03:12:03.767Z,99.90
2022-08-24T03:14:33.713Z,99.90
2022-08-24T03:17:02.868Z,99.90
2022-08-24T03:19:33.159Z,99.90
2022-08-24T03:22:02.885Z,99.90
2022-08-24T03:24:34.275Z,99.90
2022-08-24T03:27:06.812Z,99.90
2022-08-24T03:29:38.163Z,99.90
2022-08-24T03:32:09.823Z,99.90
2022-08-24T03:34:40.867Z,99.90
2022-08-24T03:37:10.546Z,99.90
2022-08-24T03:39:39.763Z,99.90
2022-08-24T03:42:12.031Z,99.90
2022-08-24T03:44:42.867Z,99.90
2022-08-24T03:47:14.147Z,99.90
2022-08-24T03:49:44.282Z,99.90
2022-08-24T03:52:16.303Z,99.90
2022-08-24T03:54:46.926Z,99.90
2022-08-24T03:57:20.963Z,99.90
2022-08-24T03:59:50.738Z,99.90
2022-08-24T04:02:22.272Z,99.90
2022-08-24T04:04:52.437Z,99.90
2022-08-24T04:07:21.796Z,99.90
2022-08-24T04:09:51.334Z,99.90
2022-08-24T04:12:24.070Z,99.90
2022-08-24T04:14:55.793Z,99.90
2022-08-24T04:17:26.834Z,99.90
2022-08-24T04:20:02.550Z,99.90
2022-08-24T04:22:37.070Z,99.90
2022-08-24T04:25:08.894Z,99.90
2022-08-24T04:27:43.582Z,99.90
2022-08-24T04:30:16.361Z,99.90
2022-08-24T04:33:06.141Z,99.90
2022-08-24T04:35:39.831Z,99.90
2022-08-24T04:38:09.676Z,99.90
2022-08-24T04:40:41.821Z,99.90
2022-08-24T04:43:19.481Z,99.90
2022-08-24T04:45:51.153Z,99.90
2022-08-24T04:48:21.489Z,99.90
2022-08-24T04:50:51.034Z,99.90
2022-08-24T04:53:20.658Z,99.90
2022-08-24T04:55:52.989Z,99.90
2022-08-24T04:58:23.825Z,99.90
2022-08-24T05:00:53.853Z,99.90
2022-08-24T05:03:24.433Z,99.90
2022-08-24T05:05:55.945Z,99.90
2022-08-24T05:08:27.397Z,99.90
2022-08-24T05:10:57.065Z,99.90
2022-08-24T05:13:28.675Z,99.90
2022-08-24T05:15:59.499Z,99.90
2022-08-24T05:18:30.331Z,99.90
2022-08-24T05:21:00.087Z,99.90
2022-08-24T05:23:31.889Z,99.90
2022-08-24T05:26:08.864Z,99.90
2022-08-24T05:28:40.119Z,99.90
2022-08-24T05:31:11.421Z,99.90
2022-08-24T05:33:41.547Z,99.90
2022-08-24T05:36:21.741Z,99.90
2022-08-24T05:38:52.799Z,99.90
2022-08-24T05:41:26.319Z,99.90
2022-08-24T05:44:13.368Z,99.90
2022-08-24T05:46:43.860Z,99.90
2022-08-24T05:49:13.612Z,99.90
2022-08-24T05:51:44.423Z,99.90
2022-08-24T05:54:15.955Z,99.90
2022-08-24T05:56:55.260Z,99.90
2022-08-24T05:59:28.812Z,99.90
2022-08-24T06:02:01.261Z,99.90
2022-08-24T06:04:33.094Z,99.90
2022-08-24T06:07:02.108Z,99.90
2022-08-24T06:09:34.719Z,99.90
2022-08-24T06:12:04.827Z,99.90
2022-08-24T06:14:36.712Z,99.90
2022-08-24T06:17:14.923Z,99.90
2022-08-24T06:19:45.512Z,99.90
2022-08-24T06:22:16.658Z,99.90
2022-08-24T06:25:02.923Z,99.90
2022-08-24T06:27:34.431Z,99.90
2022-08-24T06:30:12.925Z,99.90
2022-08-24T06:32:48.265Z,99.90
2022-08-24T06:35:44.767Z,99.90
2022-08-24T06:38:17.365Z,99.90
2022-08-24T06:40:50.787Z,99.90
2022-08-24T06:43:22.372Z,99.90
2022-08-24T06:46:02.117Z,99.90
2022-08-24T06:48:36.933Z,99.90
2022-08-24T06:51:12.391Z,99.90
2022-08-24T06:53:42.730Z,99.90
2022-08-24T06:56:18.781Z,99.90
2022-08-24T06:58:50.405Z,99.90
2022-08-24T07:01:27.575Z,99.90
2022-08-24T07:03:58.224Z,99.90
2022-08-24T07:06:59.680Z,99.90
2022-08-24T07:09:29.281Z,99.90
2022-08-24T07:11:58.797Z,99.90
2022-08-24T07:14:28.450Z,99.90
2022-08-24T07:17:02.004Z,99.90
2022-08-24T07:19:37.561Z,99.90
2022-08-24T07:22:10.408Z,99.90
2022-08-24T07:24:41.311Z,99.90
2022-08-24T07:27:15.177Z,99.90
2022-08-24T07:29:52.734Z,99.90
2022-08-24T07:32:26.024Z,99.90
2022-08-24T07:34:59.488Z,99.90
2022-08-24T07:37:41.138Z,99.90
2022-08-24T07:40:13.997Z,99.90
2022-08-24T07:42:45.097Z,99.90
2022-08-24T07:45:15.225Z,99.90
2022-08-24T07:47:55.483Z,99.90
2022-08-24T07:50:39.838Z,99.90
2022-08-24T07:53:13.858Z,99.90
2022-08-24T07:55:46.243Z,99.90
2022-08-24T07:58:16.553Z,99.90
2022-08-24T08:00:49.488Z,99.90
2022-08-24T08:03:22.249Z,99.90
2022-08-24T08:05:59.776Z,99.90
2022-08-24T08:08:29.851Z,99.90
2022-08-24T08:11:02.276Z,99.90
2022-08-24T08:13:32.414Z,99.90
2022-08-24T08:16:06.438Z,99.90
2022-08-24T08:18:40.088Z,99.90
2022-08-24T08:21:27.432Z,99.90
2022-08-24T08:24:17.143Z,99.90
2022-08-24T08:26:55.336Z,99.90
2022-08-24T08:29:38.496Z,99.90
2022-08-24T08:32:12.255Z,99.90
2022-08-24T08:34:44.506Z,99.90
2022-08-24T08:37:16.011Z,99.90
2022-08-24T08:39:47.196Z,99.90
2022-08-24T08:42:41.711Z,99.90
2022-08-24T08:45:26.775Z,99.90
2022-08-24T08:49:04.359Z,99.90
2022-08-24T08:52:11.338Z,99.90
2022-08-24T08:55:01.642Z,99.90
2022-08-24T08:57:51.138Z,99.90
2022-08-24T09:00:26.418Z,99.90
2022-08-24T09:03:28.702Z,99.90
2022-08-24T09:06:41.190Z,99.90
2022-08-24T09:09:34.755Z,99.90
2022-08-24T09:12:16.469Z,99.90
2022-08-24T09:15:16.745Z,99.90
2022-08-24T09:18:18.673Z,99.90
2022-08-24T09:21:01.937Z,99.90
2022-08-24T09:23:38.473Z,99.90
2022-08-24T09:26:21.664Z,99.90
2022-08-24T09:29:07.955Z,99.90
2022-08-24T09:31:59.928Z,99.90
2022-08-24T09:34:41.137Z,99.90
2022-08-24T09:37:33.593Z,99.90
2022-08-24T09:40:14.967Z,99.90
2022-08-24T09:43:22.760Z,99.90
2022-08-24T09:46:25.241Z,99.90
2022-08-24T09:49:32.165Z,99.90
2022-08-24T09:52:49.188Z,99.90
2022-08-24T09:55:59.996Z,99.90
2022-08-24T09:58:48.689Z,99.90
2022-08-24T10:01:30.449Z,99.90
2022-08-24T10:04:16.546Z,99.90
2022-08-24T10:06:57.172Z,99.90
2022-08-24T10:09:55.504Z,99.90
2022-08-24T10:12:46.079Z,99.90
2022-08-24T10:15:21.828Z,99.90
2022-08-24T10:18:19.748Z,99.90
2022-08-24T10:21:05.463Z,99.90
2022-08-24T10:23:55.452Z,99.90
2022-08-24T10:26:35.552Z,99.90
2022-08-24T10:29:32.806Z,99.90
2022-08-24T10:32:23.226Z,99.90
2022-08-24T10:35:06.660Z,99.90
2022-08-24T10:38:16.633Z,99.90
2022-08-24T10:40:57.936Z,99.90
2022-08-24T10:43:56.142Z,99.90
2022-08-24T10:46:41.496Z,99.90
2022-08-24T10:49:58.882Z,99.90
2022-08-24T10:52:51.012Z,99.90
2022-08-24T10:55:23.948Z,99.90
2022-08-24T10:58:17.290Z,99.90
2022-08-24T11:00:48.066Z,99.90
2022-08-24T11:03:27.756Z,99.90
2022-08-24T11:06:01.378Z,99.90
2022-08-24T11:08:34.749Z,99.90
2022-08-24T11:11:10.947Z,99.90
2022-08-24T11:13:53.967Z,99.50
2022-08-24T11:16:30.741Z,96.80
2022-08-24T11:19:04.354Z,95.30
2022-08-24T11:21:43.298Z,93.00
2022-08-24T11:24:27.181Z,88.90
2022-08-24T11:27:01.020Z,89.10
2022-08-24T11:29:52.387Z,89.60
2022-08-24T11:32:29.765Z,91.30
2022-08-24T11:35:04.977Z,92.00
2022-08-24T11:37:37.104Z,93.40
2022-08-24T11:40:10.845Z,94.20
2022-08-24T11:43:13.322Z,94.60
2022-08-24T11:45:50.248Z,96.40
2022-08-24T11:48:32.384Z,99.90
2022-08-24T11:51:09.177Z,98.20
2022-08-24T11:53:59.244Z,99.70
2022-08-24T11:56:42.207Z,99.90
2022-08-24T11:59:25.468Z,99.90
2022-08-24T12:02:00.322Z,99.90
2022-08-24T12:04:45.536Z,99.90
2022-08-24T12:07:26.180Z,99.90
2022-08-24T12:10:11.951Z,99.90
2022-08-24T12:12:48.997Z,99.90
2022-08-24T12:15:23.501Z,99.90
2022-08-24T12:18:03.678Z,99.90
2022-08-24T12:20:37.311Z,99.90
2022-08-24T12:23:10.784Z,99.90
2022-08-24T12:25:57.606Z,99.90
2022-08-24T12:28:35.319Z,99.90
2022-08-24T12:31:12.801Z,99.90
2022-08-24T12:33:50.403Z,99.90
2022-08-24T12:36:32.835Z,99.90
2022-08-24T12:39:12.268Z,99.90
2022-08-24T12:41:53.311Z,99.90
2022-08-24T12:44:31.074Z,99.90
2022-08-24T12:47:00.422Z,99.90
2022-08-24T12:49:37.085Z,99.90
2022-08-24T12:52:45.198Z,99.90
2022-08-24T12:55:33.854Z,99.90
2022-08-24T12:58:32.234Z,99.90
2022-08-24T13:01:09.147Z,99.90
2022-08-24T13:03:41.998Z,99.90
2022-08-24T13:06:20.646Z,98.70
2022-08-24T13:08:53.968Z,96.00
2022-08-24T13:11:32.937Z,95.50
2022-08-24T13:14:19.750Z,90.60
2022-08-24T13:17:11.649Z,88.80
2022-08-24T13:19:44.593Z,89.20
2022-08-24T13:22:44.433Z,81.50
2022-08-24T13:25:28.082Z,80.50
2022-08-24T13:28:10.164Z,78.00
2022-08-24T13:31:04.548Z,73.60
2022-08-24T13:33:39.084Z,73.00
2022-08-24T13:36:26.412Z,72.90
2022-08-24T13:39:22.701Z,73.40
2022-08-24T13:42:11.296Z,73.60
2022-08-24T13:45:17.090Z,73.00
2022-08-24T13:48:04.570Z,68.70
2022-08-24T13:50:46.564Z,70.80
2022-08-24T13:53:49.876Z,72.60
2022-08-24T13:56:50.736Z,72.40
2022-08-24T13:59:55.234Z,69.40
2022-08-24T14:02:35.005Z,65.80
2022-08-24T14:05:12.862Z,65.60
2022-08-24T14:07:56.040Z,66.60
2022-08-24T14:10:46.232Z,67.20
2022-08-24T14:13:34.700Z,67.10
2022-08-24T14:16:30.938Z,65.50
2022-08-24T14:19:13.152Z,66.40
2022-08-24T14:21:48.671Z,64.60
2022-08-24T14:24:33.092Z,64.40
2022-08-24T14:27:10.445Z,64.30
2022-08-24T14:29:50.727Z,65.00
2022-08-24T14:32:32.401Z,64.30
2022-08-24T14:35:20.952Z,63.30
2022-08-24T14:38:26.651Z,63.50
2022-08-24T14:41:05.240Z,64.90
2022-08-24T14:43:47.329Z,67.80
2022-08-24T14:46:29.111Z,67.90
2022-08-24T14:49:14.187Z,67.30
2022-08-24T14:52:03.366Z,68.10
2022-08-24T14:54:53.252Z,71.30
2022-08-24T14:57:42.490Z,70.00
2022-08-24T15:00:15.382Z,72.00
2022-08-24T15:03:19.683Z,68.90
2022-08-24T15:06:26.247Z,71.10
2022-08-24T15:09:13.735Z,73.10
2022-08-24T15:11:44.454Z,76.50
2022-08-24T15:14:33.623Z,79.60
2022-08-24T15:17:18.894Z,78.90
2022-08-24T15:20:02.443Z,80.10
2022-08-24T15:22:43.958Z,84.20
2022-08-24T15:25:20.162Z,82.30
2022-08-24T15:27:56.348Z,82.50
2022-08-24T15:30:33.615Z,84.10
2022-08-24T15:33:10.560Z,82.90
2022-08-24T15:35:43.963Z,85.40
2022-08-24T15:38:23.798Z,87.10
2022-08-24T15:41:05.165Z,87.90
2022-08-24T15:43:36.537Z,88.30
2022-08-24T15:46:08.102Z,89.60
2022-08-24T15:48:40.793Z,89.60
2022-08-24T15:51:11.365Z,92.20
2022-08-24T15:53:43.525Z,92.80
2022-08-24T15:56:36.301Z,92.80
2022-08-24T15:59:12.747Z,93.40
2022-08-24T16:02:02.623Z,93.40
2022-08-24T16:04:53.233Z,92.80
2022-08-24T16:07:26.424Z,93.20
2022-08-24T16:10:07.869Z,93.50
2022-08-24T16:12:38.872Z,95.30
2022-08-24T16:15:17.720Z,96.30
2022-08-24T16:17:56.760Z,98.00
2022-08-24T16:20:36.217Z,98.50
2022-08-24T16:23:08.540Z,98.40
2022-08-24T16:25:43.245Z,99.50
2022-08-24T16:28:34.071Z,99.80
2022-08-24T16:31:07.630Z,99.90
2022-08-24T16:33:44.435Z,99.90
2022-08-24T16:36:16.926Z,99.90
2022-08-24T16:38:49.847Z,99.90
2022-08-24T16:41:21.972Z,99.90
2022-08-24T16:43:52.062Z,99.90
2022-08-24T16:46:26.657Z,99.90
2022-08-24T16:48:59.480Z,99.90
2022-08-24T16:51:29.497Z,99.90
2022-08-24T16:53:58.936Z,99.90
2022-08-24T16:56:30.435Z,99.90
2022-08-24T16:59:00.776Z,99.90
2022-08-24T17:01:30.469Z,99.90
2022-08-24T17:04:04.555Z,99.90
2022-08-24T17:06:35.690Z,99.90
2022-08-24T17:09:06.471Z,99.90
2022-08-24T17:11:40.141Z,99.90
2022-08-24T17:14:09.991Z,99.90
2022-08-24T17:16:40.355Z,99.90
2022-08-24T17:19:15.459Z,99.90
2022-08-24T17:21:48.140Z,99.90
2022-08-24T17:24:21.688Z,99.90
2022-08-24T17:26:52.605Z,99.90
2022-08-24T17:29:23.794Z,99.90
2022-08-24T17:31:54.433Z,99.90
2022-08-24T17:34:27.899Z,99.90
2022-08-24T17:36:59.066Z,99.90
2022-08-24T17:39:29.014Z,99.90
2022-08-24T17:42:00.907Z,99.90
2022-08-24T17:44:34.386Z,99.90
2022-08-24T17:47:06.206Z,99.90
2022-08-24T17:49:40.326Z,99.90
2022-08-24T17:52:10.014Z,99.90
2022-08-24T17:54:39.410Z,99.90
2022-08-24T17:57:09.458Z,99.90
2022-08-24T17:59:39.467Z,99.90
2022-08-24T18:02:12.666Z,99.90
2022-08-24T18:04:44.873Z,99.90
2022-08-24T18:07:42.325Z,99.90
2022-08-24T18:10:15.739Z,99.90
2022-08-24T18:12:56.386Z,99.90
2022-08-24T18:15:34.518Z,99.90
2022-08-24T18:18:08.871Z,99.90
2022-08-24T18:20:45.458Z,99.90
2022-08-24T18:23:21.148Z,99.90
2022-08-24T18:25:53.376Z,99.90
2022-08-24T18:28:25.165Z,99.90
2022-08-24T18:30:58.826Z,99.90
2022-08-24T18:33:28.802Z,99.90
2022-08-24T18:36:00.945Z,99.90
2022-08-24T18:38:30.535Z,99.90
2022-08-24T18:41:01.878Z,99.90
2022-08-24T18:43:32.226Z,99.90
2022-08-24T18:46:04.101Z,99.90
2022-08-24T18:48:33.905Z,99.90
2022-08-24T18:51:09.236Z,99.90
2022-08-24T18:53:39.506Z,99.90
2022-08-24T18:56:12.441Z,99.90
2022-08-24T18:58:44.350Z,99.90
2022-08-24T19:01:14.667Z,99.90
2022-08-24T19:03:45.074Z,99.90
2022-08-24T19:06:17.060Z,99.90
2022-08-24T19:08:48.209Z,99.90
2022-08-24T19:11:24.346Z,99.90
2022-08-24T19:13:54.618Z,99.90
2022-08-24T19:16:30.346Z,99.90
2022-08-24T19:19:00.684Z,99.90
2022-08-24T19:21:35.612Z,99.90
2022-08-24T19:24:08.616Z,99.90
2022-08-24T19:26:40.393Z,99.90
2022-08-24T19:29:11.925Z,99.90
2022-08-24T19:31:46.380Z,99.90
2022-08-24T19:34:17.961Z,99.90
2022-08-24T19:36:51.068Z,99.90
2022-08-24T19:39:22.930Z,99.90
2022-08-24T19:42:01.864Z,99.90
2022-08-24T19:44:52.066Z,99.90
2022-08-24T19:47:23.183Z,99.90
2022-08-24T19:49:54.318Z,99.90
2022-08-24T19:52:26.465Z,99.90
2022-08-24T19:54:56.531Z,99.90
2022-08-24T19:57:38.648Z,99.90
2022-08-24T20:00:25.472Z,99.90
2022-08-24T20:02:57.935Z,99.90
2022-08-24T20:05:31.774Z,99.90
2022-08-24T20:08:06.426Z,99.90
2022-08-24T20:10:38.628Z,99.90
2022-08-24T20:13:10.943Z,99.90
2022-08-24T20:15:40.947Z,99.90
2022-08-24T20:18:12.451Z,99.90
2022-08-24T20:20:42.980Z,99.90
2022-08-24T20:23:15.283Z,99.90
2022-08-24T20:25:45.699Z,99.90
2022-08-24T20:28:37.819Z,99.90
2022-08-24T20:31:10.015Z,99.90
2022-08-24T20:33:39.789Z,99.90
2022-08-24T20:36:23.159Z,99.90
2022-08-24T20:38:57.153Z,99.90
2022-08-24T20:41:30.826Z,99.90
2022-08-24T20:44:02.538Z,99.90
2022-08-24T20:46:33.571Z,99.90
2022-08-24T20:49:04.399Z,99.90
2022-08-24T20:51:33.763Z,99.90
2022-08-24T20:54:09.478Z,99.90
2022-08-24T20:56:41.230Z,99.90
2022-08-24T20:59:14.781Z,99.90
2022-08-24T21:01:44.501Z,99.90
2022-08-24T21:04:14.151Z,99.90
2022-08-24T21:06:45.538Z,99.90
2022-08-24T21:09:17.394Z,99.90
2022-08-24T21:11:49.314Z,99.90
2022-08-24T21:14:20.363Z,99.90
2022-08-24T21:16:50.838Z,99.90
2022-08-24T21:19:32.949Z,99.90
2022-08-24T21:22:04.453Z,99.90
2022-08-24T21:24:36.195Z,99.90
2022-08-24T21:27:06.790Z,99.90
2022-08-24T21:29:36.229Z,99.90
2022-08-24T21:32:23.723Z,99.90
2022-08-24T21:34:53.895Z,99.90
2022-08-24T21:37:25.444Z,99.90
2022-08-24T21:39:56.789Z,99.90
2022-08-24T21:42:27.699Z,99.90
2022-08-24T21:44:57.705Z,99.90
2022-08-24T21:47:27.603Z,99.90
2022-08-24T21:49:58.619Z,99.90
2022-08-24T21:52:28.417Z,99.90
2022-08-24T21:55:00.615Z,99.90
2022-08-24T21:57:31.753Z,99.90
2022-08-24T22:00:01.369Z,99.90
2022-08-24T22:02:33.450Z,99.90
2022-08-24T22:05:03.192Z,99.90
2022-08-24T22:07:32.349Z,99.90
2022-08-24T22:10:03.867Z,99.90
2022-08-24T22:12:33.833Z,99.90
2022-08-24T22:15:04.116Z,99.90
2022-08-24T22:17:33.620Z,99.90
2022-08-24T22:20:03.240Z,99.90
2022-08-24T22:22:32.903Z,99.90
2022-08-24T22:25:05.973Z,99.90
2022-08-24T22:27:37.913Z,99.90
2022-08-24T22:30:08.744Z,99.90
2022-08-24T22:32:38.132Z,99.90
2022-08-24T22:35:09.834Z,99.90
2022-08-24T22:37:39.776Z,99.90
2022-08-24T22:40:13.287Z,99.90
2022-08-24T22:42:43.045Z,99.90
2022-08-24T22:45:13.116Z,99.90
2022-08-24T22:47:43.040Z,99.90
2022-08-24T22:50:14.539Z,99.90
2022-08-24T22:52:45.407Z,99.90
2022-08-24T22:55:16.511Z,99.90
2022-08-24T22:57:46.479Z,99.90
2022-08-24T23:00:21.063Z,99.90
2022-08-24T23:02:50.824Z,99.90
2022-08-24T23:05:20.644Z,99.90
2022-08-24T23:07:49.632Z,99.90
2022-08-24T23:10:21.811Z,99.90
2022-08-24T23:12:51.152Z,99.90
2022-08-24T23:15:20.439Z,99.90
2022-08-24T23:17:49.981Z,99.90
2022-08-24T23:20:17.818Z,99.90
2022-08-24T23:22:48.780Z,99.90
2022-08-24T23:25:21.482Z,99.90
2022-08-24T23:27:53.798Z,99.90
2022-08-24T23:30:23.570Z,99.90
2022-08-24T23:32:53.530Z,99.90
2022-08-24T23:35:24.179Z,99.90
2022-08-24T23:37:56.182Z,99.90
2022-08-24T23:40:26.799Z,99.90
2022-08-24T23:42:56.346Z,99.90
2022-08-24T23:45:28.400Z,99.90
2022-08-24T23:48:00.170Z,99.90
2022-08-24T23:50:29.365Z,99.90
2022-08-24T23:52:58.862Z,99.90
2022-08-24T23:55:30.003Z,99.90
2022-08-24T23:57:59.430Z,99.90
